sensor_id;sensor_type;location;lat;lon;timestamp;temperature;humidity
43894;DHT22;29556;50.846;4.442;2023-02-26T00:01:16;4.10;74.70
43894;DHT22;29556;50.846;4.442;2023-02-26T00:03:42;4.00;74.60
43894;DHT22;29556;50.846;4.442;2023-02-26T00:06:08;4.10;74.70
43894;DHT22;29556;50.846;4.442;2023-02-26T00:08:34;4.00;74.90
43894;DHT22;29556;50.846;4.442;2023-02-26T00:11:00;4.00;75.10
43894;DHT22;29556;50.846;4.442;2023-02-26T00:13:29;4.00;75.30
43894;DHT22;29556;50.846;4.442;2023-02-26T00:15:58;4.00;75.60
43894;DHT22;29556;50.846;4.442;2023-02-26T00:18:25;4.00;75.90
43894;DHT22;29556;50.846;4.442;2023-02-26T00:20:51;4.00;75.90
43894;DHT22;29556;50.846;4.442;2023-02-26T00:23:17;4.00;76.00
43894;DHT22;29556;50.846;4.442;2023-02-26T00:25:44;4.00;75.90
43894;DHT22;29556;50.846;4.442;2023-02-26T00:28:10;4.00;75.90
43894;DHT22;29556;50.846;4.442;2023-02-26T00:30:36;4.00;75.60
43894;DHT22;29556;50.846;4.442;2023-02-26T00:33:03;4.00;75.60
43894;DHT22;29556;50.846;4.442;2023-02-26T00:35:30;4.00;75.70
43894;DHT22;29556;50.846;4.442;2023-02-26T00:38:05;4.00;75.80
43894;DHT22;29556;50.846;4.442;2023-02-26T00:40:39;4.00;75.80
43894;DHT22;29556;50.846;4.442;2023-02-26T00:43:09;3.90;75.70
43894;DHT22;29556;50.846;4.442;2023-02-26T00:51:15;3.90;76.00
43894;DHT22;29556;50.846;4.442;2023-02-26T00:54:18;3.90;75.70
43894;DHT22;29556;50.846;4.442;2023-02-26T00:56:46;3.90;76.30
43894;DHT22;29556;50.846;4.442;2023-02-26T00:59:12;3.80;76.20
43894;DHT22;29556;50.846;4.442;2023-02-26T01:01:38;3.90;76.10
43894;DHT22;29556;50.846;4.442;2023-02-26T01:04:04;3.90;76.00
43894;DHT22;29556;50.846;4.442;2023-02-26T01:06:33;3.80;76.20
43894;DHT22;29556;50.846;4.442;2023-02-26T01:09:25;3.80;76.50
43894;DHT22;29556;50.846;4.442;2023-02-26T01:11:56;3.80;76.60
43894;DHT22;29556;50.846;4.442;2023-02-26T01:14:23;3.80;76.60
43894;DHT22;29556;50.846;4.442;2023-02-26T01:22:40;3.80;76.60
43894;DHT22;29556;50.846;4.442;2023-02-26T01:25:13;3.80;77.10
43894;DHT22;29556;50.846;4.442;2023-02-26T01:27:39;3.80;77.00
43894;DHT22;29556;50.846;4.442;2023-02-26T01:30:05;3.80;77.10
43894;DHT22;29556;50.846;4.442;2023-02-26T01:32:50;3.80;77.10
43894;DHT22;29556;50.846;4.442;2023-02-26T01:38:36;3.70;77.10
43894;DHT22;29556;50.846;4.442;2023-02-26T01:49:29;3.70;77.70
43894;DHT22;29556;50.846;4.442;2023-02-26T01:51:58;3.70;77.40
43894;DHT22;29556;50.846;4.442;2023-02-26T01:54:34;3.70;77.60
43894;DHT22;29556;50.846;4.442;2023-02-26T01:57:10;3.70;77.70
43894;DHT22;29556;50.846;4.442;2023-02-26T01:59:40;3.60;77.50
43894;DHT22;29556;50.846;4.442;2023-02-26T02:02:09;3.60;77.70
43894;DHT22;29556;50.846;4.442;2023-02-26T02:04:36;3.60;77.90
43894;DHT22;29556;50.846;4.442;2023-02-26T02:07:03;3.70;77.80
43894;DHT22;29556;50.846;4.442;2023-02-26T02:09:29;3.60;78.00
43894;DHT22;29556;50.846;4.442;2023-02-26T02:33:11;3.60;77.80
43894;DHT22;29556;50.846;4.442;2023-02-26T02:38:19;3.50;77.90
43894;DHT22;29556;50.846;4.442;2023-02-26T02:40:50;3.60;77.80
43894;DHT22;29556;50.846;4.442;2023-02-26T02:43:21;3.60;78.20
43894;DHT22;29556;50.846;4.442;2023-02-26T02:46:04;3.60;78.10
43894;DHT22;29556;50.846;4.442;2023-02-26T02:51:32;3.60;78.30
43894;DHT22;29556;50.846;4.442;2023-02-26T02:56:38;3.60;78.70
43894;DHT22;29556;50.846;4.442;2023-02-26T02:59:32;3.70;78.70
43894;DHT22;29556;50.846;4.442;2023-02-26T03:02:17;3.70;78.70
43894;DHT22;29556;50.846;4.442;2023-02-26T03:04:44;3.80;78.20
43894;DHT22;29556;50.846;4.442;2023-02-26T03:07:10;3.90;78.20
43894;DHT22;29556;50.846;4.442;2023-02-26T03:09:37;3.90;77.90
43894;DHT22;29556;50.846;4.442;2023-02-26T03:12:03;4.00;77.80
43894;DHT22;29556;50.846;4.442;2023-02-26T03:14:31;4.00;77.70
43894;DHT22;29556;50.846;4.442;2023-02-26T03:17:00;4.20;77.40
43894;DHT22;29556;50.846;4.442;2023-02-26T03:25:15;3.90;76.70
43894;DHT22;29556;50.846;4.442;2023-02-26T03:27:54;4.00;76.70
43894;DHT22;29556;50.846;4.442;2023-02-26T03:38:02;3.90;76.80
43894;DHT22;29556;50.846;4.442;2023-02-26T03:40:45;3.80;76.40
43894;DHT22;29556;50.846;4.442;2023-02-26T03:43:22;3.80;76.40
43894;DHT22;29556;50.846;4.442;2023-02-26T03:45:51;3.80;76.00
43894;DHT22;29556;50.846;4.442;2023-02-26T03:48:23;3.80;76.20
43894;DHT22;29556;50.846;4.442;2023-02-26T03:50:51;3.80;76.20
43894;DHT22;29556;50.846;4.442;2023-02-26T03:53:24;3.80;76.30
43894;DHT22;29556;50.846;4.442;2023-02-26T03:56:18;3.80;76.20
43894;DHT22;29556;50.846;4.442;2023-02-26T03:58:44;3.80;76.20
43894;DHT22;29556;50.846;4.442;2023-02-26T04:01:21;3.80;76.80
43894;DHT22;29556;50.846;4.442;2023-02-26T04:03:52;3.80;76.40
43894;DHT22;29556;50.846;4.442;2023-02-26T04:06:20;3.80;76.70
43894;DHT22;29556;50.846;4.442;2023-02-26T04:08:47;3.70;76.20
43894;DHT22;29556;50.846;4.442;2023-02-26T04:11:18;3.70;75.70
43894;DHT22;29556;50.846;4.442;2023-02-26T04:13:44;3.70;75.90
43894;DHT22;29556;50.846;4.442;2023-02-26T04:16:11;3.70;76.10
43894;DHT22;29556;50.846;4.442;2023-02-26T04:18:37;3.70;75.60
43894;DHT22;29556;50.846;4.442;2023-02-26T04:21:02;3.60;75.80
43894;DHT22;29556;50.846;4.442;2023-02-26T04:23:29;3.70;75.60
43894;DHT22;29556;50.846;4.442;2023-02-26T04:25:54;3.70;75.70
43894;DHT22;29556;50.846;4.442;2023-02-26T04:28:20;3.70;75.60
43894;DHT22;29556;50.846;4.442;2023-02-26T04:30:46;3.70;75.60
43894;DHT22;29556;50.846;4.442;2023-02-26T04:33:12;3.60;75.50
43894;DHT22;29556;50.846;4.442;2023-02-26T04:35:38;3.60;75.40
43894;DHT22;29556;50.846;4.442;2023-02-26T04:38:04;3.60;75.40
43894;DHT22;29556;50.846;4.442;2023-02-26T04:40:30;3.60;75.20
43894;DHT22;29556;50.846;4.442;2023-02-26T04:42:55;3.60;75.00
43894;DHT22;29556;50.846;4.442;2023-02-26T04:45:21;3.60;74.80
43894;DHT22;29556;50.846;4.442;2023-02-26T04:47:47;3.60;74.90
43894;DHT22;29556;50.846;4.442;2023-02-26T04:50:12;3.60;74.80
43894;DHT22;29556;50.846;4.442;2023-02-26T04:52:38;3.60;74.80
43894;DHT22;29556;50.846;4.442;2023-02-26T04:55:05;3.60;74.70
43894;DHT22;29556;50.846;4.442;2023-02-26T04:57:32;3.60;74.60
43894;DHT22;29556;50.846;4.442;2023-02-26T04:59:57;3.60;74.50
43894;DHT22;29556;50.846;4.442;2023-02-26T05:02:23;3.60;74.10
43894;DHT22;29556;50.846;4.442;2023-02-26T05:04:49;3.50;74.20
43894;DHT22;29556;50.846;4.442;2023-02-26T05:07:15;3.60;74.40
43894;DHT22;29556;50.846;4.442;2023-02-26T05:09:40;3.60;74.20
43894;DHT22;29556;50.846;4.442;2023-02-26T05:12:06;3.50;74.20
43894;DHT22;29556;50.846;4.442;2023-02-26T05:14:32;3.50;73.90
43894;DHT22;29556;50.846;4.442;2023-02-26T05:16:57;3.50;73.90
43894;DHT22;29556;50.846;4.442;2023-02-26T05:19:23;3.50;74.00
43894;DHT22;29556;50.846;4.442;2023-02-26T05:21:48;3.50;74.10
43894;DHT22;29556;50.846;4.442;2023-02-26T05:24:15;3.50;73.80
43894;DHT22;29556;50.846;4.442;2023-02-26T05:26:40;3.50;74.00
43894;DHT22;29556;50.846;4.442;2023-02-26T05:29:06;3.40;74.40
43894;DHT22;29556;50.846;4.442;2023-02-26T05:31:32;3.40;74.00
43894;DHT22;29556;50.846;4.442;2023-02-26T05:33:57;3.40;74.30
43894;DHT22;29556;50.846;4.442;2023-02-26T05:36:23;3.30;74.30
43894;DHT22;29556;50.846;4.442;2023-02-26T05:38:48;3.30;74.90
43894;DHT22;29556;50.846;4.442;2023-02-26T05:41:14;3.30;75.60
43894;DHT22;29556;50.846;4.442;2023-02-26T05:43:40;3.30;74.90
43894;DHT22;29556;50.846;4.442;2023-02-26T05:46:06;3.30;75.20
43894;DHT22;29556;50.846;4.442;2023-02-26T05:48:31;3.30;74.70
43894;DHT22;29556;50.846;4.442;2023-02-26T05:50:57;3.20;75.10
43894;DHT22;29556;50.846;4.442;2023-02-26T05:53:23;3.20;75.10
43894;DHT22;29556;50.846;4.442;2023-02-26T05:55:49;3.20;74.90
43894;DHT22;29556;50.846;4.442;2023-02-26T05:58:15;3.20;75.30
43894;DHT22;29556;50.846;4.442;2023-02-26T06:00:41;3.20;75.10
43894;DHT22;29556;50.846;4.442;2023-02-26T06:03:07;3.20;74.50
43894;DHT22;29556;50.846;4.442;2023-02-26T06:05:32;3.20;74.60
43894;DHT22;29556;50.846;4.442;2023-02-26T06:07:58;3.40;74.90
43894;DHT22;29556;50.846;4.442;2023-02-26T06:10:24;3.10;74.80
43894;DHT22;29556;50.846;4.442;2023-02-26T06:12:49;3.10;74.20
43894;DHT22;29556;50.846;4.442;2023-02-26T06:15:15;3.10;74.80
43894;DHT22;29556;50.846;4.442;2023-02-26T06:17:40;3.00;74.60
43894;DHT22;29556;50.846;4.442;2023-02-26T06:20:07;3.10;75.20
43894;DHT22;29556;50.846;4.442;2023-02-26T06:22:33;3.10;74.70
43894;DHT22;29556;50.846;4.442;2023-02-26T06:24:58;3.10;74.70
43894;DHT22;29556;50.846;4.442;2023-02-26T06:27:24;3.10;74.30
43894;DHT22;29556;50.846;4.442;2023-02-26T06:29:49;3.10;74.40
43894;DHT22;29556;50.846;4.442;2023-02-26T06:32:15;3.10;74.80
43894;DHT22;29556;50.846;4.442;2023-02-26T06:34:41;3.10;74.80
43894;DHT22;29556;50.846;4.442;2023-02-26T06:37:06;3.10;74.70
43894;DHT22;29556;50.846;4.442;2023-02-26T06:39:32;3.10;75.30
43894;DHT22;29556;50.846;4.442;2023-02-26T06:41:58;3.10;74.50
43894;DHT22;29556;50.846;4.442;2023-02-26T06:44:23;3.00;74.70
43894;DHT22;29556;50.846;4.442;2023-02-26T06:46:49;3.00;74.60
43894;DHT22;29556;50.846;4.442;2023-02-26T06:49:15;3.00;74.30
43894;DHT22;29556;50.846;4.442;2023-02-26T06:51:40;3.20;74.40
43894;DHT22;29556;50.846;4.442;2023-02-26T06:54:06;3.00;74.00
43894;DHT22;29556;50.846;4.442;2023-02-26T06:56:32;3.00;74.00
43894;DHT22;29556;50.846;4.442;2023-02-26T06:58:58;3.00;73.90
43894;DHT22;29556;50.846;4.442;2023-02-26T07:01:23;3.00;74.10
43894;DHT22;29556;50.846;4.442;2023-02-26T07:03:49;3.10;74.10
43894;DHT22;29556;50.846;4.442;2023-02-26T07:06:15;3.10;73.80
43894;DHT22;29556;50.846;4.442;2023-02-26T07:08:41;3.10;74.00
43894;DHT22;29556;50.846;4.442;2023-02-26T07:11:07;3.10;73.90
43894;DHT22;29556;50.846;4.442;2023-02-26T07:13:35;3.00;73.90
43894;DHT22;29556;50.846;4.442;2023-02-26T07:16:03;3.10;73.60
43894;DHT22;29556;50.846;4.442;2023-02-26T07:18:35;3.00;72.90
43894;DHT22;29556;50.846;4.442;2023-02-26T07:21:01;3.10;73.00
43894;DHT22;29556;50.846;4.442;2023-02-26T07:23:27;3.10;72.70
43894;DHT22;29556;50.846;4.442;2023-02-26T07:25:52;3.10;72.60
43894;DHT22;29556;50.846;4.442;2023-02-26T07:28:18;3.10;72.00
43894;DHT22;29556;50.846;4.442;2023-02-26T07:30:45;3.10;72.30
43894;DHT22;29556;50.846;4.442;2023-02-26T07:33:11;3.10;72.20
43894;DHT22;29556;50.846;4.442;2023-02-26T07:35:37;3.10;71.90
43894;DHT22;29556;50.846;4.442;2023-02-26T07:38:03;3.10;71.80
43894;DHT22;29556;50.846;4.442;2023-02-26T07:40:29;3.20;71.40
43894;DHT22;29556;50.846;4.442;2023-02-26T07:42:55;3.20;70.80
43894;DHT22;29556;50.846;4.442;2023-02-26T07:45:20;3.20;70.70
43894;DHT22;29556;50.846;4.442;2023-02-26T07:47:51;3.20;70.20
43894;DHT22;29556;50.846;4.442;2023-02-26T07:50:18;3.40;70.80
43894;DHT22;29556;50.846;4.442;2023-02-26T07:52:43;3.20;70.70
43894;DHT22;29556;50.846;4.442;2023-02-26T07:55:10;3.30;70.30
43894;DHT22;29556;50.846;4.442;2023-02-26T07:57:36;3.40;70.80
43894;DHT22;29556;50.846;4.442;2023-02-26T08:00:02;3.40;70.80
43894;DHT22;29556;50.846;4.442;2023-02-26T08:02:29;3.40;69.70
43894;DHT22;29556;50.846;4.442;2023-02-26T08:04:54;3.40;70.20
43894;DHT22;29556;50.846;4.442;2023-02-26T08:07:20;3.40;70.40
43894;DHT22;29556;50.846;4.442;2023-02-26T08:09:46;3.50;69.60
43894;DHT22;29556;50.846;4.442;2023-02-26T08:12:12;3.50;69.70
43894;DHT22;29556;50.846;4.442;2023-02-26T08:14:37;3.60;70.00
43894;DHT22;29556;50.846;4.442;2023-02-26T08:17:06;3.60;70.30
43894;DHT22;29556;50.846;4.442;2023-02-26T08:19:33;3.70;69.20
43894;DHT22;29556;50.846;4.442;2023-02-26T08:21:58;3.70;69.40
43894;DHT22;29556;50.846;4.442;2023-02-26T08:24:24;3.70;69.10
43894;DHT22;29556;50.846;4.442;2023-02-26T08:26:49;3.70;68.60
43894;DHT22;29556;50.846;4.442;2023-02-26T08:29:16;3.80;68.80
43894;DHT22;29556;50.846;4.442;2023-02-26T08:31:42;3.80;68.20
43894;DHT22;29556;50.846;4.442;2023-02-26T08:34:07;3.80;68.40
43894;DHT22;29556;50.846;4.442;2023-02-26T08:36:33;3.80;68.60
43894;DHT22;29556;50.846;4.442;2023-02-26T08:38:59;3.90;68.50
43894;DHT22;29556;50.846;4.442;2023-02-26T08:41:24;3.90;67.90
43894;DHT22;29556;50.846;4.442;2023-02-26T08:43:53;3.90;68.10
43894;DHT22;29556;50.846;4.442;2023-02-26T08:46:19;3.90;67.60
43894;DHT22;29556;50.846;4.442;2023-02-26T08:48:44;4.00;67.10
43894;DHT22;29556;50.846;4.442;2023-02-26T08:51:10;4.00;67.80
43894;DHT22;29556;50.846;4.442;2023-02-26T08:53:35;4.00;67.90
43894;DHT22;29556;50.846;4.442;2023-02-26T08:56:01;4.00;67.80
43894;DHT22;29556;50.846;4.442;2023-02-26T08:58:27;4.10;68.00
43894;DHT22;29556;50.846;4.442;2023-02-26T09:00:52;4.10;68.30
43894;DHT22;29556;50.846;4.442;2023-02-26T09:03:18;4.10;68.20
43894;DHT22;29556;50.846;4.442;2023-02-26T09:05:44;4.30;67.70
43894;DHT22;29556;50.846;4.442;2023-02-26T09:08:09;4.20;67.30
43894;DHT22;29556;50.846;4.442;2023-02-26T09:10:36;4.30;67.30
43894;DHT22;29556;50.846;4.442;2023-02-26T09:13:01;4.40;66.50
43894;DHT22;29556;50.846;4.442;2023-02-26T09:15:27;4.30;66.70
43894;DHT22;29556;50.846;4.442;2023-02-26T09:17:53;4.30;66.10
43894;DHT22;29556;50.846;4.442;2023-02-26T09:20:19;4.40;66.40
43894;DHT22;29556;50.846;4.442;2023-02-26T09:22:44;4.40;65.60
43894;DHT22;29556;50.846;4.442;2023-02-26T09:25:10;4.40;65.70
43894;DHT22;29556;50.846;4.442;2023-02-26T09:27:36;4.50;65.10
43894;DHT22;29556;50.846;4.442;2023-02-26T09:30:03;4.40;65.70
43894;DHT22;29556;50.846;4.442;2023-02-26T09:32:29;4.50;65.80
43894;DHT22;29556;50.846;4.442;2023-02-26T09:34:55;4.50;65.80
43894;DHT22;29556;50.846;4.442;2023-02-26T09:37:21;4.50;65.60
43894;DHT22;29556;50.846;4.442;2023-02-26T09:39:46;4.70;66.40
43894;DHT22;29556;50.846;4.442;2023-02-26T09:44:53;4.60;64.50
43894;DHT22;29556;50.846;4.442;2023-02-26T09:47:31;4.60;63.80
43894;DHT22;29556;50.846;4.442;2023-02-26T09:50:19;4.60;63.20
43894;DHT22;29556;50.846;4.442;2023-02-26T09:53:11;4.50;63.20
43894;DHT22;29556;50.846;4.442;2023-02-26T09:55:44;4.60;64.90
43894;DHT22;29556;50.846;4.442;2023-02-26T09:58:39;4.60;64.50
43894;DHT22;29556;50.846;4.442;2023-02-26T10:07:40;4.80;64.00
43894;DHT22;29556;50.846;4.442;2023-02-26T10:12:52;4.90;62.00
43894;DHT22;29556;50.846;4.442;2023-02-26T10:15:37;4.80;61.10
43894;DHT22;29556;50.846;4.442;2023-02-26T10:18:22;4.80;61.80
43894;DHT22;29556;50.846;4.442;2023-02-26T10:21:06;4.90;62.10
43894;DHT22;29556;50.846;4.442;2023-02-26T10:23:48;4.90;61.40
43894;DHT22;29556;50.846;4.442;2023-02-26T10:26:25;4.90;61.80
43894;DHT22;29556;50.846;4.442;2023-02-26T10:29:24;5.10;61.00
43894;DHT22;29556;50.846;4.442;2023-02-26T10:37:18;5.20;59.30
43894;DHT22;29556;50.846;4.442;2023-02-26T10:42:51;5.30;59.30
43894;DHT22;29556;50.846;4.442;2023-02-26T10:45:48;5.40;59.20
43894;DHT22;29556;50.846;4.442;2023-02-26T10:51:19;5.60;58.20
43894;DHT22;29556;50.846;4.442;2023-02-26T10:53:50;5.60;57.80
43894;DHT22;29556;50.846;4.442;2023-02-26T10:56:21;5.70;58.10
43894;DHT22;29556;50.846;4.442;2023-02-26T10:58:50;5.90;58.20
43894;DHT22;29556;50.846;4.442;2023-02-26T11:01:18;6.00;57.80
43894;DHT22;29556;50.846;4.442;2023-02-26T11:03:46;6.10;57.90
43894;DHT22;29556;50.846;4.442;2023-02-26T11:06:31;6.40;58.30
43894;DHT22;29556;50.846;4.442;2023-02-26T11:08:59;6.50;57.10
43894;DHT22;29556;50.846;4.442;2023-02-26T11:11:44;6.70;56.50
43894;DHT22;29556;50.846;4.442;2023-02-26T11:14:10;6.50;54.50
43894;DHT22;29556;50.846;4.442;2023-02-26T11:16:47;6.50;54.60
43894;DHT22;29556;50.846;4.442;2023-02-26T11:19:15;6.50;53.60
43894;DHT22;29556;50.846;4.442;2023-02-26T11:21:44;6.30;54.10
43894;DHT22;29556;50.846;4.442;2023-02-26T11:26:49;6.30;53.70
43894;DHT22;29556;50.846;4.442;2023-02-26T11:29:20;6.40;54.40
43894;DHT22;29556;50.846;4.442;2023-02-26T11:31:49;6.30;55.20
43894;DHT22;29556;50.846;4.442;2023-02-26T11:34:15;6.30;55.20
43894;DHT22;29556;50.846;4.442;2023-02-26T11:36:45;6.40;55.40
43894;DHT22;29556;50.846;4.442;2023-02-26T11:39:15;6.50;54.80
43894;DHT22;29556;50.846;4.442;2023-02-26T11:41:45;6.50;54.30
43894;DHT22;29556;50.846;4.442;2023-02-26T11:44:17;6.50;54.00
43894;DHT22;29556;50.846;4.442;2023-02-26T11:46:47;6.80;54.90
43894;DHT22;29556;50.846;4.442;2023-02-26T11:49:16;6.50;53.10
43894;DHT22;29556;50.846;4.442;2023-02-26T11:51:45;6.70;53.60
43894;DHT22;29556;50.846;4.442;2023-02-26T11:54:23;6.70;53.80
43894;DHT22;29556;50.846;4.442;2023-02-26T11:56:49;6.70;53.10
43894;DHT22;29556;50.846;4.442;2023-02-26T11:59:22;6.70;54.20
43894;DHT22;29556;50.846;4.442;2023-02-26T12:01:49;6.60;53.00
43894;DHT22;29556;50.846;4.442;2023-02-26T12:04:23;6.60;53.60
43894;DHT22;29556;50.846;4.442;2023-02-26T12:06:55;6.60;52.80
43894;DHT22;29556;50.846;4.442;2023-02-26T12:09:21;6.60;52.60
43894;DHT22;29556;50.846;4.442;2023-02-26T12:29:10;6.90;52.10
43894;DHT22;29556;50.846;4.442;2023-02-26T12:34:26;7.00;52.40
43894;DHT22;29556;50.846;4.442;2023-02-26T12:37:29;7.00;51.70
43894;DHT22;29556;50.846;4.442;2023-02-26T12:40:20;7.00;52.20
43894;DHT22;29556;50.846;4.442;2023-02-26T12:45:52;7.00;52.50
43894;DHT22;29556;50.846;4.442;2023-02-26T12:51:49;7.20;53.90
43894;DHT22;29556;50.846;4.442;2023-02-26T12:54:28;7.10;53.70
43894;DHT22;29556;50.846;4.442;2023-02-26T13:16:12;7.10;50.60
43894;DHT22;29556;50.846;4.442;2023-02-26T13:19:03;7.20;50.90
43894;DHT22;29556;50.846;4.442;2023-02-26T13:21:35;7.30;51.20
43894;DHT22;29556;50.846;4.442;2023-02-26T13:24:11;7.30;51.20
43894;DHT22;29556;50.846;4.442;2023-02-26T13:26:39;7.40;51.70
43894;DHT22;29556;50.846;4.442;2023-02-26T13:29:20;7.40;51.10
43894;DHT22;29556;50.846;4.442;2023-02-26T13:31:50;7.20;51.40
43894;DHT22;29556;50.846;4.442;2023-02-26T13:34:25;7.20;51.80
43894;DHT22;29556;50.846;4.442;2023-02-26T13:36:52;7.20;52.10
43894;DHT22;29556;50.846;4.442;2023-02-26T13:44:52;7.00;50.50
43894;DHT22;29556;50.846;4.442;2023-02-26T13:56:12;6.80;50.00
43894;DHT22;29556;50.846;4.442;2023-02-26T13:58:41;6.70;49.90
43894;DHT22;29556;50.846;4.442;2023-02-26T14:01:17;6.70;50.60
43894;DHT22;29556;50.846;4.442;2023-02-26T14:06:37;6.70;50.70
43894;DHT22;29556;50.846;4.442;2023-02-26T14:12:03;6.60;50.80
43894;DHT22;29556;50.846;4.442;2023-02-26T14:14:41;6.70;51.10
43894;DHT22;29556;50.846;4.442;2023-02-26T14:19:42;6.70;49.70
43894;DHT22;29556;50.846;4.442;2023-02-26T14:24:59;6.70;50.30
43894;DHT22;29556;50.846;4.442;2023-02-26T14:27:39;6.70;50.30
43894;DHT22;29556;50.846;4.442;2023-02-26T14:30:17;6.70;49.60
43894;DHT22;29556;50.846;4.442;2023-02-26T14:35:35;6.70;50.10
43894;DHT22;29556;50.846;4.442;2023-02-26T14:38:22;6.70;49.70
43894;DHT22;29556;50.846;4.442;2023-02-26T14:43:42;6.60;49.70
43894;DHT22;29556;50.846;4.442;2023-02-26T14:46:13;6.60;49.10
43894;DHT22;29556;50.846;4.442;2023-02-26T14:48:42;6.60;49.00
43894;DHT22;29556;50.846;4.442;2023-02-26T15:03:28;6.70;50.50
43894;DHT22;29556;50.846;4.442;2023-02-26T15:15:01;6.70;49.60
43894;DHT22;29556;50.846;4.442;2023-02-26T15:20:36;6.60;48.90
43894;DHT22;29556;50.846;4.442;2023-02-26T15:23:27;6.60;50.50
43894;DHT22;29556;50.846;4.442;2023-02-26T15:25:59;6.50;49.50
43894;DHT22;29556;50.846;4.442;2023-02-26T15:28:34;6.50;49.80
43894;DHT22;29556;50.846;4.442;2023-02-26T15:31:05;6.50;50.70
43894;DHT22;29556;50.846;4.442;2023-02-26T15:33:35;6.60;51.60
43894;DHT22;29556;50.846;4.442;2023-02-26T15:36:12;6.60;51.70
43894;DHT22;29556;50.846;4.442;2023-02-26T15:38:49;6.60;50.90
43894;DHT22;29556;50.846;4.442;2023-02-26T15:41:18;6.50;50.60
43894;DHT22;29556;50.846;4.442;2023-02-26T15:44:13;6.50;51.50
43894;DHT22;29556;50.846;4.442;2023-02-26T15:46:44;6.50;50.70
43894;DHT22;29556;50.846;4.442;2023-02-26T15:49:15;6.50;51.20
43894;DHT22;29556;50.846;4.442;2023-02-26T15:51:46;6.60;50.60
43894;DHT22;29556;50.846;4.442;2023-02-26T15:54:18;6.60;50.90
43894;DHT22;29556;50.846;4.442;2023-02-26T15:56:48;6.60;51.30
43894;DHT22;29556;50.846;4.442;2023-02-26T15:59:21;6.60;51.70
43894;DHT22;29556;50.846;4.442;2023-02-26T16:01:52;6.60;51.80
43894;DHT22;29556;50.846;4.442;2023-02-26T16:04:22;6.60;51.80
43894;DHT22;29556;50.846;4.442;2023-02-26T16:06:56;6.70;51.40
43894;DHT22;29556;50.846;4.442;2023-02-26T16:09:29;6.60;51.20
43894;DHT22;29556;50.846;4.442;2023-02-26T16:12:11;6.60;51.10
43894;DHT22;29556;50.846;4.442;2023-02-26T16:14:49;6.60;51.80
43894;DHT22;29556;50.846;4.442;2023-02-26T16:17:30;6.70;52.10
43894;DHT22;29556;50.846;4.442;2023-02-26T16:20:10;6.70;51.50
43894;DHT22;29556;50.846;4.442;2023-02-26T16:23:02;6.80;52.50
43894;DHT22;29556;50.846;4.442;2023-02-26T16:25:38;6.70;52.60
43894;DHT22;29556;50.846;4.442;2023-02-26T16:28:14;6.60;52.60
43894;DHT22;29556;50.846;4.442;2023-02-26T16:30:46;6.60;52.20
43894;DHT22;29556;50.846;4.442;2023-02-26T16:33:17;6.50;51.30
43894;DHT22;29556;50.846;4.442;2023-02-26T16:36:02;6.50;51.70
43894;DHT22;29556;50.846;4.442;2023-02-26T16:38:46;6.50;52.10
43894;DHT22;29556;50.846;4.442;2023-02-26T16:41:20;6.50;52.50
43894;DHT22;29556;50.846;4.442;2023-02-26T16:43:56;6.50;53.60
43894;DHT22;29556;50.846;4.442;2023-02-26T16:46:33;6.50;53.90
43894;DHT22;29556;50.846;4.442;2023-02-26T16:49:09;6.50;53.50
43894;DHT22;29556;50.846;4.442;2023-02-26T16:51:40;6.50;53.00
43894;DHT22;29556;50.846;4.442;2023-02-26T16:54:25;6.40;53.20
43894;DHT22;29556;50.846;4.442;2023-02-26T16:57:33;6.30;52.60
43894;DHT22;29556;50.846;4.442;2023-02-26T17:02:57;6.30;54.40
43894;DHT22;29556;50.846;4.442;2023-02-26T17:05:29;6.30;54.10
43894;DHT22;29556;50.846;4.442;2023-02-26T17:10:49;6.30;54.70
43894;DHT22;29556;50.846;4.442;2023-02-26T17:13:24;6.20;55.20
43894;DHT22;29556;50.846;4.442;2023-02-26T17:15:57;6.20;55.10
43894;DHT22;29556;50.846;4.442;2023-02-26T17:18:27;6.10;55.30
43894;DHT22;29556;50.846;4.442;2023-02-26T17:20:58;6.10;55.80
43894;DHT22;29556;50.846;4.442;2023-02-26T17:23:36;6.10;55.60
43894;DHT22;29556;50.846;4.442;2023-02-26T17:26:06;6.10;56.30
43894;DHT22;29556;50.846;4.442;2023-02-26T17:28:39;6.00;55.40
43894;DHT22;29556;50.846;4.442;2023-02-26T17:31:10;6.00;55.50
43894;DHT22;29556;50.846;4.442;2023-02-26T17:33:43;5.90;55.60
43894;DHT22;29556;50.846;4.442;2023-02-26T17:36:25;5.90;55.70
43894;DHT22;29556;50.846;4.442;2023-02-26T17:38:54;5.90;56.10
43894;DHT22;29556;50.846;4.442;2023-02-26T17:41:23;5.90;57.20
43894;DHT22;29556;50.846;4.442;2023-02-26T17:43:53;5.90;57.30
43894;DHT22;29556;50.846;4.442;2023-02-26T17:46:22;5.90;58.60
43894;DHT22;29556;50.846;4.442;2023-02-26T17:48:51;5.90;59.60
43894;DHT22;29556;50.846;4.442;2023-02-26T17:51:19;5.90;58.50
43894;DHT22;29556;50.846;4.442;2023-02-26T17:53:48;5.80;58.60
43894;DHT22;29556;50.846;4.442;2023-02-26T17:58:56;5.70;59.90
43894;DHT22;29556;50.846;4.442;2023-02-26T18:01:26;5.70;61.00
43894;DHT22;29556;50.846;4.442;2023-02-26T18:03:54;5.60;59.90
43894;DHT22;29556;50.846;4.442;2023-02-26T18:06:24;5.60;60.80
43894;DHT22;29556;50.846;4.442;2023-02-26T18:08:55;5.60;60.00
43894;DHT22;29556;50.846;4.442;2023-02-26T18:11:23;5.50;61.50
43894;DHT22;29556;50.846;4.442;2023-02-26T18:13:50;5.70;63.70
43894;DHT22;29556;50.846;4.442;2023-02-26T18:16:19;5.50;62.40
43894;DHT22;29556;50.846;4.442;2023-02-26T18:18:45;5.40;61.20
43894;DHT22;29556;50.846;4.442;2023-02-26T18:21:11;5.40;61.00
43894;DHT22;29556;50.846;4.442;2023-02-26T18:23:37;5.40;60.10
43894;DHT22;29556;50.846;4.442;2023-02-26T18:26:03;5.40;61.20
43894;DHT22;29556;50.846;4.442;2023-02-26T18:28:30;5.40;62.10
43894;DHT22;29556;50.846;4.442;2023-02-26T18:30:56;5.40;62.60
43894;DHT22;29556;50.846;4.442;2023-02-26T18:33:23;5.30;61.50
43894;DHT22;29556;50.846;4.442;2023-02-26T18:35:51;5.30;62.40
43894;DHT22;29556;50.846;4.442;2023-02-26T18:38:24;5.20;63.50
43894;DHT22;29556;50.846;4.442;2023-02-26T18:40:50;5.20;65.10
43894;DHT22;29556;50.846;4.442;2023-02-26T18:43:18;5.20;64.70
43894;DHT22;29556;50.846;4.442;2023-02-26T18:45:45;5.10;65.30
43894;DHT22;29556;50.846;4.442;2023-02-26T18:48:14;5.10;65.20
43894;DHT22;29556;50.846;4.442;2023-02-26T18:50:41;5.00;64.40
43894;DHT22;29556;50.846;4.442;2023-02-26T18:53:07;5.00;63.90
43894;DHT22;29556;50.846;4.442;2023-02-26T18:55:33;5.00;65.00
43894;DHT22;29556;50.846;4.442;2023-02-26T18:57:59;5.00;65.20
43894;DHT22;29556;50.846;4.442;2023-02-26T19:00:24;4.90;65.30
43894;DHT22;29556;50.846;4.442;2023-02-26T19:02:53;5.00;63.50
43894;DHT22;29556;50.846;4.442;2023-02-26T19:05:20;4.90;64.60
43894;DHT22;29556;50.846;4.442;2023-02-26T19:07:51;4.90;64.90
43894;DHT22;29556;50.846;4.442;2023-02-26T19:10:21;4.80;64.90
43894;DHT22;29556;50.846;4.442;2023-02-26T19:12:50;4.80;64.60
43894;DHT22;29556;50.846;4.442;2023-02-26T19:15:21;4.80;66.10
43894;DHT22;29556;50.846;4.442;2023-02-26T19:17:49;4.80;67.20
43894;DHT22;29556;50.846;4.442;2023-02-26T19:20:14;4.80;66.40
43894;DHT22;29556;50.846;4.442;2023-02-26T19:22:40;4.80;67.10
43894;DHT22;29556;50.846;4.442;2023-02-26T19:25:07;4.80;67.50